• Join FlightAware (Why Join?)
  • Login
  • US Flag 
09:04AM EDT


 

Airport Tracker/Info


-or-


 

Live Flight TrackerFlight Track Log ✈ EJM685 ✈ 15-Dec-2013 ✈ KTEB - KCLT

Flight Track Log - Related Links

Times and Time Zones

All times are in EST time to prevent confusion due to time zone crossing. See the EJM685 flight status page for this flight to view local times or setup timezone preferences in your user account.

Time Position Orientation Groundspeed Altitude Reporting Facility
EST Latitude Longitude Course Direction KTS MPH feet Rate Location/Type
12:56PM 40.8167 -74.1167 255° West 180 207 1,500  Level New York TRACON
12:58PM 40.7800 -74.2925 255° West 221 254 6,300 2,520 Climbing New York Center
12:59PM 40.7753 -74.3828 266° West 243 280 10,000 3,120 Climbing New York Center
01:00PM 40.7331 -74.4653 236° Southwest 248 285 12,600 3,060 Climbing New York Center
01:01PM 40.6781 -74.5581 232° Southwest 287 330 16,200 3,540 Climbing New York Center
01:02PM 40.6231 -74.6428 229° Southwest 326 375 19,700 3,840 Climbing New York Center
01:03PM 40.5569 -74.7508 231° Southwest 347 399 23,900 3,840 Climbing New York Center
01:04PM 40.4953 -74.8511 231° Southwest 353 406 27,400 3,000 Climbing New York Center
01:05PM 40.4356 -74.9511 232° Southwest 358 412 30,000 2,700 Climbing New York Center
01:06PM 40.3653 -75.0503 227° Southwest 368 423 32,800 2,280 Climbing New York Center
01:07PM 40.2969 -75.1494 228° Southwest 374 430 34,600 2,040 Climbing New York Center
01:08PM 40.2267 -75.2483 227° Southwest 379 436 36,900 2,340 Climbing New York Center
01:09PM 40.1583 -75.3444 227° Southwest 373 429 39,300 1,920 Climbing New York Center
01:10PM 40.0878 -75.4375 225° Southwest 368 423 40,800 1,320 Climbing New York Center
01:11PM 40.0217 -75.5333 228° Southwest 368 423 42,000 1,080 Climbing New York Center
01:12PM 39.9531 -75.6289 227° Southwest 368 423 43,000 900 Climbing New York Center
01:13PM 39.8842 -75.7325 229° Southwest 374 430 43,800 660 Climbing New York Center
01:14PM 39.8169 -75.8386 231° Southwest 379 436 44,400 600 Climbing New York Center
01:16PM 39.7192 -75.9933 231° Southwest 389 448 45,400 720 Climbing Washington Center
01:17PM 39.6522 -76.1008 231° Southwest 389 448 46,300 720 Climbing Washington Center
01:18PM 39.5828 -76.2081 230° Southwest 394 453 46,900 300 Climbing Washington Center
01:19PM 39.5156 -76.3125 230° Southwest 394 453 47,000  Climbing Washington Center
01:20PM 39.4356 -76.4325 229° Southwest 404 465 47,000  Level Washington Center
01:21PM 39.3661 -76.5392 230° Southwest 404 465 47,000  Level Washington Center
01:22PM 39.3006 -76.6456 231° Southwest 398 458 47,000  Level Washington Center
01:23PM 39.2289 -76.7517 229° Southwest 398 458 47,000  Level Washington Center
01:24PM 39.1631 -76.8578 231° Southwest 398 458 47,000  Level Washington Center
01:25PM 39.0931 -76.9661 230° Southwest 398 458 47,000  Level Washington Center
01:26PM 39.0211 -77.0639 227° Southwest 398 458 47,000  Level Washington Center
01:27PM 38.9367 -77.1581 221° Southwest 398 458 47,000  Level Washington Center
01:28PM 38.8542 -77.2469 220° Southwest 393 452 47,000  Level Washington Center
01:29PM 38.7886 -77.3147 219° Southwest 393 452 47,000  Level Washington Center
01:30PM 38.6994 -77.4164 222° Southwest 393 452 47,000  Level Washington Center
01:31PM 38.6147 -77.5072 220° Southwest 393 452 47,000  Level Washington Center
01:32PM 38.5339 -77.5981 221° Southwest 393 452 47,000  Level Washington Center
01:33PM 38.4511 -77.6833 219° Southwest 393 452 47,000  Level Washington Center
01:34PM 38.3703 -77.7739 221° Southwest 393 452 47,000  Level Washington Center
01:35PM 38.2872 -77.8614 220° Southwest 388 447 47,000  Level Washington Center
01:36PM 38.2214 -77.9308 220° Southwest 388 447 47,000  Level Washington Center
01:37PM 38.1211 -78.0383 220° Southwest 388 447 47,000  Level Washington Center
01:38PM 38.0381 -78.1281 220° Southwest 388 447 47,000  Level Washington Center
01:39PM 37.9692 -78.2233 227° Southwest 379 436 47,000  Level Washington Center
01:40PM 37.8981 -78.3261 229° Southwest 379 436 47,000  Level Washington Center
01:41PM 37.8311 -78.4261 230° Southwest 385 443 47,000  Level Washington Center
01:42PM 37.7600 -78.5206 226° Southwest 385 443 47,000  Level Washington Center
01:43PM 37.6864 -78.6306 230° Southwest 380 437 47,000 -600 Level Washington Center
01:44PM 37.6172 -78.7275 228° Southwest 380 437 45,900 -1,260 Descending Washington Center
01:45PM 37.5478 -78.8242 228° Southwest 380 437 44,600 -1,380 Descending Washington Center
01:46PM 37.4783 -78.9206 228° Southwest 380 437 43,200 -1,440 Descending Washington Center
01:47PM 37.4111 -79.0144 228° Southwest 380 437 41,800 -1,500 Descending Washington Center
01:48PM 37.3436 -79.1108 229° Southwest 374 430 40,200 -1,680 Descending Washington Center
01:49PM 37.2847 -79.1942 228° Southwest 374 430 38,500 -1,800 Descending Washington Center
01:50PM 37.2094 -79.2767 221° Southwest 369 425 36,700 -1,800 Descending Washington Center
01:51PM 37.1236 -79.3456 213° Southwest 367 422 34,900 -1,800 Descending Washington Center
01:52PM 37.0361 -79.4142 212° Southwest 367 422 33,100 -1,440 Descending Washington Center
01:53PM 36.9481 -79.4878 214° Southwest 378 435 32,000 -600 Descending Washington Center
01:54PM 36.8536 -79.5658 213° Southwest 378 435 32,000 -120 Level Washington Center
01:55PM 36.7678 -79.6394 214° Southwest 378 435 31,800 -600 Descending Washington Center
01:56PM 36.6800 -79.7100 213° Southwest 378 435 30,800 -1,380 Descending Washington Center
01:58PM 36.4492 -79.8936 213° Southwest 374 430 26,500 -1,500 Descending Atlanta Center
01:59PM 36.3742 -79.9544 213° Southwest 351 404 25,100 -1,740 Descending Atlanta Center
02:00PM 36.2908 -80.0256 215° Southwest 340 391 23,100 -1,740 Descending Atlanta Center
02:01PM 36.2178 -80.0883 215° Southwest 334 384 21,700 -780 Descending Atlanta Center
02:02PM 36.1447 -80.1511 215° Southwest 334 384 21,600 -180 Descending Atlanta Center
02:03PM 36.0717 -80.2111 214° Southwest 329 379 21,400 -420 Descending Atlanta Center
02:04PM 36.0064 -80.2656 214° Southwest 324 373 20,800 -840 Descending Atlanta Center
02:05PM 35.9864 -80.2894 224° Southwest 308 354 20,400 -2,220 Descending Atlanta Center
02:05PM 35.9375 -80.3303 214° Southwest 324 373 18,600 -2,760 Descending Atlanta Center
02:06PM 35.9111 -80.3544 217° Southwest 307 353 17,600 -2,100 Descending Atlanta Center
02:06PM 35.8683 -80.3847 210° Southwest 319 367 16,500 -1,500 Descending Atlanta Center
02:07PM 35.8419 -80.4114 219° Southwest 295 339 16,100 -1,140 Descending Atlanta Center
02:07PM 35.8053 -80.4411 213° Southwest 306 352 15,400 -1,200 Descending Atlanta Center
02:08PM 35.7808 -80.4653 219° Southwest 268 308 14,900 -1,440 Descending Atlanta Center
02:08PM 35.7361 -80.5006 213° Southwest 292 336 14,000 -1,260 Descending Atlanta Center
02:09PM 35.7117 -80.5222 216° Southwest 275 316 13,500 -1,140 Descending Atlanta Center
02:09PM 35.6728 -80.5519 212° Southwest 287 330 12,900 -900 Descending Atlanta Center
02:10PM 35.6444 -80.5786 217° Southwest 273 314 12,600 -540 Descending Atlanta Center
02:10PM 35.6097 -80.6031 210° Southwest 282 325 12,400 -600 Descending Atlanta Center
02:11PM 35.5833 -80.6297 219° Southwest 271 312 12,000 -720 Descending Atlanta Center
02:11PM 35.5464 -80.6569 211° Southwest 282 325 11,700 -720 Descending Atlanta Center
02:12PM 35.5181 -80.6808 214° Southwest 273 314 11,300 -720 Descending Atlanta Center
02:12PM 35.4833 -80.7078 212° Southwest 282 325 11,000 -540 Descending Atlanta Center
02:13PM 35.4567 -80.7344 219° Southwest 272 313 10,800 -300 Descending Atlanta Center
02:13PM 35.4219 -80.7614 212° Southwest 282 325 10,700 -240 Descending Atlanta Center
02:14PM 35.3936 -80.7853 215° Southwest 272 313 10,600 -540 Descending Atlanta Center
02:14PM 35.3608 -80.8122 214° Southwest 282 325 10,200 -540 Descending Atlanta Center
02:15PM 35.3364 -80.8308 212° Southwest 251 289 10,100 -720 Descending Atlanta Center
02:16PM 35.2803 -80.8408 188° South 236 272 9,300 -840 Descending Atlanta Center
02:17PM 35.2133 -80.8331 175° South 237 273 8,600 -1,080 Descending Atlanta Center
02:18PM 35.1464 -80.8281 177° South 240 276 7,200 -1,260 Descending Atlanta Center
02:19PM 35.0794 -80.8256 178° South 240 276 6,100 -1,200 Descending Atlanta Center
02:20PM 35.0517 -80.8800 238° Southwest 210 242 4,800 -1,260 Descending Atlanta Center
02:21PM 35.0969 -80.9317 317° Northwest 198 228 3,600 -1,140 Descending Atlanta Center
02:22PM 35.1406 -80.9300 North 142 163 2,600 -1,140 Descending Atlanta Center
02:23PM 35.1761 -80.9361 352° North 118 136 1,300 -1,320 Descending Atlanta Center
02:25PM 35.2000 -80.9333 219° Southwest  Level FlightAware Approximate
02:32PM 35.2137 -80.9491 219° Southwest  Level Estimated